Flight Track Log - Related Links

Times and Time Zones

All times are in EDT time to prevent confusion due to time zone crossing. See the XOJ747 flight status page for this flight to view local times or setup timezone preferences in your user account.


Time Position Orientation Groundspeed Altitude Reporting Facility
EDT Latitude Longitude Course Direction KTS MPH feet Rate Location/Type
Sun 03:40:59 PM 29.5078 -98.4392 154° Southeast 193 222 2,700  Level Houston Center
Sun 03:42:05 PM 29.4547 -98.4089 154° Southeast 240 276 5,400 2,504 Climbing Houston Center
Sun 03:42:54 PM 29.4481 -98.4728 263° West 285 328 7,500 2,727 Climbing Houston Center
Sun 03:43:55 PM 29.5133 -98.5228 326° Northwest 288 331 10,400 2,321 Climbing Houston Center
Sun 03:45:11 PM 29.6042 -98.5908 327° Northwest 319 367 12,800 1,478 Climbing Houston Center
Sun 03:46:13 PM 29.6875 -98.6625 323° Northwest 386 444 13,800 1,694 Climbing Houston Center
Sun 03:47:15 PM 29.7317 -98.7828 293° West 380 437 16,300 2,400 Climbing Houston Center
Sun 03:48:18 PM 29.8011 -98.8694 313° West 374 430 18,800 2,304 Climbing Houston Center
Sun 03:49:20 PM 29.8822 -98.9553 317° Northwest 367 422 21,100 2,081 Climbing Houston Center
Sun 03:50:22 PM 29.9586 -99.0331 319° Northwest 367 422 23,100 1,839 Climbing Houston Center
Sun 03:51:24 PM 30.0292 -99.1153 315° West 370 426 24,900 1,597 Climbing Houston Center
Sun 03:52:26 PM 30.0778 -99.2200 298° West 373 429 26,400 1,452 Climbing Houston Center
Sun 03:53:28 PM 30.1289 -99.3294 298° West 385 443 27,900 1,452 Climbing Houston Center
Sun 03:54:30 PM 30.1825 -99.4419 299° West 399 459 29,400 1,597 Climbing Houston Center
Sun 03:55:32 PM 30.2475 -99.5797 299° West 409 471 31,200 1,403 Climbing Houston Center
Sun 03:56:34 PM 30.3019 -99.6978 298° West 416 479 32,300 1,016 Climbing Houston Center
Sun 03:57:36 PM 30.3600 -99.8208 299° West 433 498 33,300 960 Climbing Houston Center
Sun 03:58:39 PM 30.4186 -99.9469 298° West 447 514 34,300 1,056 Climbing Houston Center
Sun 03:59:41 PM 30.4914 -100.1044 298° West 461 531 35,500 1,065 Climbing Houston Center
Sun 04:00:43 PM 30.5528 -100.2389 298° West 480 552 36,500 968 Climbing Houston Center
Sun 04:01:45 PM 30.6139 -100.3739 298° West 487 560 37,500 968 Climbing Houston Center
Sun 04:02:47 PM 30.6769 -100.5119 298° West 491 565 38,500 968 Climbing Houston Center
Sun 04:03:49 PM 30.7389 -100.6483 298° West 488 562 39,500 1,016 Climbing Houston Center
Sun 04:04:51 PM 30.8133 -100.8092 298° West 472 543 40,600 1,016 Climbing Houston Center
Sun 04:05:53 PM 30.8736 -100.9500 297° West 485 558 41,600 968 Climbing Houston Center
Sun 04:06:55 PM 30.9364 -101.0817 299° West 470 541 42,600 677 Climbing Houston Center
Sun 04:07:57 PM 30.9983 -101.2125 299° West 460 529 43,000 192 Climbing Houston Center
Sun 04:09:00 PM 31.0681 -101.3744 297° West 474 545 43,000 144 Level Houston Center
Sun 04:10:02 PM 31.1228 -101.5119 295° West 471 542 43,300 532 Climbing Houston Center
Sun 04:11:04 PM 31.1853 -101.6464 299° West 471 542 44,100 726 Climbing Houston Center
Sun 04:12:06 PM 31.2439 -101.7786 297° West 465 535 44,800 435 Climbing Houston Center
Sun 04:13:08 PM 31.3033 -101.9114 298° West 463 533 45,000 97 Climbing Houston Center
Sun 04:14:10 PM 31.3764 -102.0708 298° West 466 536 45,000  Level Houston Center
Sun 04:15:03 PM 31.4142 -102.1736 293° West 473 544 45,000  Level Albuquerque Center
Sun 04:16:04 PM 31.4697 -102.3456 291° West 475 547 45,000  Level Albuquerque Center
Sun 04:17:06 PM 31.5069 -102.4964 286° West 479 551 45,000  Level Albuquerque Center
Sun 04:18:08 PM 31.5461 -102.6508 287° West 477 549 45,000  Level Albuquerque Center
Sun 04:19:10 PM 31.5842 -102.7983 287° West 476 548 45,000  Level Albuquerque Center
Sun 04:20:12 PM 31.6222 -102.9461 287° West 475 547 45,000  Level Albuquerque Center
Sun 04:21:13 PM 31.6619 -103.0942 288° West 476 548 45,000  Level Albuquerque Center
Sun 04:22:15 PM 31.7008 -103.2419 287° West 476 548 45,000  Level Albuquerque Center
Sun 04:23:17 PM 31.7428 -103.3883 289° West 476 548 45,000  Level Albuquerque Center
Sun 04:24:19 PM 31.8017 -103.5606 292° West 475 547 45,000  Level Albuquerque Center
Sun 04:25:21 PM 31.8528 -103.7075 292° West 480 552 45,000  Level Albuquerque Center
Sun 04:26:23 PM 31.8994 -103.8539 291° West 481 554 45,000  Level Albuquerque Center
Sun 04:27:24 PM 31.9411 -104.0022 288° West 480 552 45,000  Level Albuquerque Center
Sun 04:28:26 PM 31.9858 -104.1478 290° West 472 543 45,000 48 Level Albuquerque Center
Sun 04:29:28 PM 32.0333 -104.2911 291° West 469 540 45,100 194 Climbing Albuquerque Center
Sun 04:30:30 PM 32.0814 -104.4331 292° West 469 540 45,400 387 Climbing Albuquerque Center
Sun 04:31:32 PM 32.1400 -104.6028 292° West 469 540 45,900 439 Climbing Albuquerque Center
Sun 04:32:33 PM 32.1881 -104.7417 292° West 466 536 46,300 341 Climbing Albuquerque Center
Sun 04:33:35 PM 32.2367 -104.8811 292° West 464 534 46,600 339 Climbing Albuquerque Center
Sun 04:34:37 PM 32.2850 -105.0186 293° West 462 532 47,000 194 Climbing Albuquerque Center
Sun 04:35:39 PM 32.3281 -105.1586 290° West 458 527 47,000  Level Albuquerque Center
Sun 04:36:40 PM 32.3722 -105.3003 290° West 458 527 47,000  Level Albuquerque Center
Sun 04:37:42 PM 32.4097 -105.4772 284° West 464 534 47,000  Level Albuquerque Center
Sun 04:38:44 PM 32.4297 -105.6289 279° West 468 539 47,000  Level Albuquerque Center
Sun 04:39:46 PM 32.4525 -105.7789 280° West 468 539 47,000  Level Albuquerque Center
Sun 04:40:48 PM 32.4775 -105.9281 281° West 467 537 47,000  Level Albuquerque Center
Sun 04:41:49 PM 32.5111 -106.0744 285° West 468 539 47,000  Level Albuquerque Center
Sun 04:42:51 PM 32.5544 -106.2456 287° West 465 535 47,000  Level Albuquerque Center
Sun 04:43:53 PM 32.5936 -106.3986 287° West 471 542 47,000  Level Albuquerque Center
Sun 04:44:55 PM 32.6325 -106.5439 288° West 467 537 47,000  Level Albuquerque Center
Sun 04:45:56 PM 32.6719 -106.6889 288° West 465 535 47,000  Level Albuquerque Center
Sun 04:46:58 PM 32.7128 -106.8358 288° West 470 541 47,000  Level Albuquerque Center
Sun 04:48:00 PM 32.7583 -106.9797 291° West 474 545 47,000  Level Albuquerque Center
Sun 04:49:02 PM 32.8036 -107.1228 291° West 471 542 47,000  Level Albuquerque Center
Sun 04:50:04 PM 32.8561 -107.2942 290° West 466 536 47,000  Level Albuquerque Center
Sun 04:51:05 PM 32.9025 -107.4372 291° West 467 537 47,000  Level Albuquerque Center
Sun 04:52:07 PM 32.9467 -107.5803 290° West 464 534 47,000  Level Albuquerque Center
Sun 04:53:09 PM 32.9917 -107.7247 290° West 466 536 47,000 -49 Level Albuquerque Center
Sun 04:54:10 PM 33.0378 -107.8692 291° West 468 539 46,900  Descending Albuquerque Center
Sun 04:55:12 PM 33.0828 -108.0150 290° West 470 541 47,000 48 Climbing Albuquerque Center
Sun 04:56:14 PM 33.1353 -108.1811 291° West 468 539 47,000  Level Albuquerque Center
Sun 04:57:15 PM 33.1786 -108.3247 290° West 465 535 47,000  Level Albuquerque Center
Sun 04:58:17 PM 33.2233 -108.4692 290° West 467 537 47,000  Level Albuquerque Center
Sun 04:59:19 PM 33.2686 -108.6133 291° West 468 539 47,000  Level Albuquerque Center
Sun 05:00:21 PM 33.3217 -108.7864 290° West 468 539 47,000  Level Albuquerque Center
Sun 05:01:22 PM 33.3647 -108.9319 290° West 470 541 47,000  Level Albuquerque Center
Sun 05:02:24 PM 33.4083 -109.0767 290° West 469 540 47,000  Level Albuquerque Center
Sun 05:03:26 PM 33.4514 -109.2222 290° West 469 540 47,000  Level Albuquerque Center
Sun 05:04:27 PM 33.4953 -109.3672 290° West 467 537 47,000  Level Albuquerque Center
Sun 05:05:29 PM 33.5533 -109.5408 292° West 471 542 47,000  Level Albuquerque Center
Sun 05:06:31 PM 33.6117 -109.6811 297° West 473 544 47,000  Level Albuquerque Center
Sun 05:07:32 PM 33.6700 -109.8242 296° West 477 549 47,000  Level Albuquerque Center
Sun 05:08:34 PM 33.7281 -109.9658 296° West 478 550 47,000  Level Albuquerque Center
Sun 05:09:36 PM 33.7850 -110.1131 295° West 485 558 47,000  Level Albuquerque Center
Sun 05:10:38 PM 33.8419 -110.2564 296° West 481 554 47,000  Level Albuquerque Center
Sun 05:11:39 PM 33.9094 -110.4253 296° West 478 550 47,000  Level Albuquerque Center
Sun 05:12:41 PM 33.9664 -110.5694 295° West 478 550 47,000  Level Albuquerque Center
Sun 05:13:43 PM 34.0253 -110.7150 296° West 476 548 47,000  Level Albuquerque Center
Sun 05:14:44 PM 34.0803 -110.8558 295° West 475 547 47,000  Level Albuquerque Center
Sun 05:15:46 PM 34.1350 -110.9989 295° West 474 545 47,000  Level Albuquerque Center
Sun 05:16:48 PM 34.1914 -111.1414 296° West 474 545 47,000  Level Albuquerque Center
Sun 05:17:50 PM 34.2561 -111.3092 295° West 465 535 47,000  Level Albuquerque Center
Sun 05:18:51 PM 34.3083 -111.4414 296° West 447 514 47,000  Level Albuquerque Center
Sun 05:19:53 PM 34.3572 -111.5714 295° West 434 499 47,000  Level Albuquerque Center
Sun 05:20:55 PM 34.4075 -111.7008 295° West 431 496 47,000 -293 Level Albuquerque Center
Sun 05:21:56 PM 34.4589 -111.8347 295° West 439 505 46,400 -780 Descending Albuquerque Center
Sun 05:22:58 PM 34.5100 -111.9728 294° West 449 517 45,400 -1,065 Descending Albuquerque Center
Sun 05:24:00 PM 34.5711 -112.1331 295° West 442 509 44,200 -1,073 Descending Albuquerque Center
Sun 05:25:01 PM 34.6197 -112.2636 294° West 431 496 43,200 -1,024 Descending Albuquerque Center
Sun 05:26:03 PM 34.6678 -112.3903 295° West 424 488 42,100 -1,500 Descending Albuquerque Center
Sun 05:27:05 PM 34.7161 -112.5172 295° West 418 481 40,100 -2,032 Descending Albuquerque Center
Sun 05:28:07 PM 34.7681 -112.6472 296° West 425 489 37,900 -2,146 Descending Albuquerque Center
Sun 05:29:08 PM 34.8203 -112.7831 295° West 438 504 35,700 -2,293 Descending Albuquerque Center
Sun 05:30:10 PM 34.8831 -112.9478 295° West 445 512 33,200 -2,274 Descending Albuquerque Center
Sun 05:31:12 PM 34.9364 -113.0853 295° West 446 513 31,000 -1,171 Descending Albuquerque Center
Sun 05:32:54 PM 35.0103 -113.2714 296° West 435 501 30,000 -436 Descending Los Angeles Center
Sun 05:33:57 PM 35.1297 -113.3867 322° Northwest 454 522 29,800 -768 Descending Los Angeles Center
Sun 05:34:59 PM 35.2244 -113.4800 321° Northwest 438 504 28,400 -1,839 Descending Los Angeles Center
Sun 05:36:01 PM 35.3217 -113.5878 318° Northwest 399 459 26,000 -1,984 Descending Los Angeles Center
Sun 05:37:03 PM 35.3775 -113.6958 302° West 379 436 24,300 -1,597 Descending Los Angeles Center
Sun 05:38:05 PM 35.4322 -113.7997 303° West 365 420 22,700 -1,694 Descending Los Angeles Center
Sun 05:39:07 PM 35.4869 -113.9011 304° West 360 414 20,800 -1,790 Descending Los Angeles Center
Sun 05:40:09 PM 35.5386 -113.9978 303° West 343 395 19,000 -1,935 Descending Los Angeles Center
Sun 05:41:11 PM 35.5817 -114.1217 293° West 327 376 16,800 -1,839 Descending Los Angeles Center
Sun 05:42:13 PM 35.5953 -114.2275 279° West 316 364 15,200 -1,327 Descending Los Angeles Center
Sun 05:43:04 PM 35.6433 -114.2983 310° West 317 365 14,300 -1,514 Descending Los Angeles Center
Sun 05:44:04 PM 35.7194 -114.3678 323° Northwest 319 367 12,400 -1,140 Descending Los Angeles Center
Sun 05:45:05 PM 35.7989 -114.4128 335° Northwest 316 364 12,000 -344 Descending Los Angeles Center
Sun 05:46:06 PM 35.8747 -114.4614 333° Northwest 314 361 11,700 -639 Descending Los Angeles Center
Sun 05:47:07 PM 35.9333 -114.5400 313° West 307 353 10,700 -934 Descending Los Angeles Center
Sun 05:48:08 PM 35.9808 -114.6067 311° West 260 299 9,800 -893 Descending Los Angeles Center
Sun 05:49:08 PM 36.0269 -114.6683 313° West 243 280 8,900 -893 Descending Los Angeles Center
Sun 05:50:09 PM 36.0681 -114.7369 307° West 230 265 8,000 -934 Descending Los Angeles Center
Sun 05:51:10 PM 36.0733 -114.8097 275° West 215 247 7,000 -885 Descending Los Angeles Center
Sun 05:52:11 PM 36.0725 -114.8847 269° West 216 249 6,200 -836 Descending Los Angeles Center
Sun 05:53:12 PM 36.0733 -114.9481 271° West 190 219 5,300 -984 Descending Los Angeles Center
Sun 05:54:13 PM 36.0728 -115.0044 269° West 160 184 4,200 -992 Descending Los Angeles Center
Sun 05:55:13 PM 36.0742 -115.0597 272° West 151 174 3,300 -893 Descending Los Angeles Center
Sun 05:56:14 PM 36.0722 -115.1108 267° West 147 169 2,400 -885 Descending Los Angeles Center
Sun 05:58:00 PM 36.0667 -115.1500 270° West  Level FlightAware Approximate

Login

Don't have an account? Register now (free) for customized features, flight alerts, and more!